Davenport Center, New York
Current Conditions -  °F | °C
As of 4:55 AM on Tuesday 21 Oct 2014 (Local Time) from KNY0 Reporting Station
Overcast Overcast  
Wind Chill: 43°   Ceiling: 6000
Heat Index: 43°   Visibility: 10mi
Dew Point: 38°   Wind: 3mph
Humidity: 84%   Direction: 30°NNE
Pressure: 29.89"   Gusts: NA
Location:  42.45°N, 74.92°W
Report Text: KNY0 210855Z AUTO 03003KT 10SM OVC060 06/04 A2989 RMK AO2 T00610036
Loading
Personal Weather Stations






























Interactive Weather Map
Tropical Storm Tracking
New forecast layout! Learn more

10-Day Weather Forecast

Advertisements
Track Severe Weather on mobile